Time,TemperatureF,DewpointF,PressureIn,WindDirection,WindDirectionDegrees,WindSpeedMPH,WindSpeedGustMPH,Humidity,HourlyPrecipIn,Conditions,Clouds,dailyrainin,SolarRadiationWatts/m^2,SoftwareType,DateUTC
2013-01-29 00:04:00,59.1,57.1,29.74,South,181,13.0,14.0,93,0.00,,,0.00,0,Wunderground v.1.15,2013-01-29 06:04:00,
2013-01-29 00:09:00,59.1,57.1,29.74,SSW,198,13.0,17.0,93,0.00,,,0.00,0,Wunderground v.1.15,2013-01-29 06:09:00,
2013-01-29 00:19:00,59.2,57.2,29.74,South,180,14.0,14.0,93,0.00,,,0.00,0,Wunderground v.1.15,2013-01-29 06:19:00,
2013-01-29 00:24:00,59.2,57.2,29.74,South,175,14.0,14.0,93,0.00,,,0.00,0,Wunderground v.1.15,2013-01-29 06:24:00,
2013-01-29 00:29:00,59.2,57.2,29.74,South,182,14.0,16.0,93,0.00,,,0.00,0,Wunderground v.1.15,2013-01-29 06:29:00,
2013-01-29 00:34:00,59.1,57.1,29.74,South,174,14.0,16.0,93,0.00,,,0.00,0,Wunderground v.1.15,2013-01-29 06:34:00,
2013-01-29 00:39:00,59.0,57.0,29.73,South,173,13.0,13.0,93,0.00,,,0.00,0,Wunderground v.1.15,2013-01-29 06:39:00,
2013-01-29 00:49:00,58.9,56.9,29.73,South,170,13.0,13.0,93,0.00,,,0.00,0,Wunderground v.1.15,2013-01-29 06:49:00,
2013-01-29 00:54:00,58.7,56.7,29.73,South,180,13.0,15.0,93,0.00,,,0.00,0,Wunderground v.1.15,2013-01-29 06:54:00,
2013-01-29 00:59:00,58.6,56.6,29.73,South,184,11.0,13.0,93,0.00,,,0.00,0,Wunderground v.1.15,2013-01-29 06:59:00,
2013-01-29 01:04:00,58.6,56.9,29.73,South,172,11.0,13.0,94,0.00,,,0.00,0,Wunderground v.1.15,2013-01-29 07:04:00,
2013-01-29 01:09:00,58.6,56.6,29.73,SSE,167,12.0,12.0,93,0.00,,,0.00,0,Wunderground v.1.15,2013-01-29 07:09:00,
2013-01-29 01:14:00,58.6,56.9,29.72,SSE,159,12.0,12.0,94,0.00,,,0.00,0,Wunderground v.1.15,2013-01-29 07:14:00,
2013-01-29 01:24:00,58.6,56.9,29.72,South,175,13.0,13.0,94,0.00,,,0.00,0,Wunderground v.1.15,2013-01-29 07:24:00,
2013-01-29 01:29:00,58.4,56.4,29.71,South,171,12.0,12.0,93,0.00,,,0.00,0,Wunderground v.1.15,2013-01-29 07:29:00,
2013-01-29 01:34:00,58.4,56.7,29.71,South,178,11.0,13.0,94,0.00,,,0.00,0,Wunderground v.1.15,2013-01-29 07:34:00,
2013-01-29 01:39:00,58.3,56.6,29.71,South,169,11.0,11.0,94,0.00,,,0.00,0,Wunderground v.1.15,2013-01-29 07:39:00,
2013-01-29 01:44:00,58.2,56.5,29.71,South,176,11.0,11.0,94,0.00,,,0.00,0,Wunderground v.1.15,2013-01-29 07:44:00,
2013-01-29 01:54:00,58.1,56.4,29.71,South,185,10.0,10.0,94,0.00,,,0.00,0,Wunderground v.1.15,2013-01-29 07:54:00,
2013-01-29 01:59:00,58.0,56.3,29.71,South,182,11.0,11.0,94,0.00,,,0.00,0,Wunderground v.1.15,2013-01-29 07:59:00,
2013-01-29 02:04:00,58.1,56.4,29.71,South,171,11.0,14.0,94,0.00,,,0.00,0,Wunderground v.1.15,2013-01-29 08:04:00,
2013-01-29 02:09:00,58.1,56.4,29.71,South,169,11.0,11.0,94,0.00,,,0.00,0,Wunderground v.1.15,2013-01-29 08:09:00,
2013-01-29 02:14:00,58.2,56.5,29.71,South,180,12.0,12.0,94,0.00,,,0.00,0,Wunderground v.1.15,2013-01-29 08:14:00,
2013-01-29 02:19:00,58.3,56.6,29.71,South,176,13.0,13.0,94,0.00,,,0.00,0,Wunderground v.1.15,2013-01-29 08:19:00,
2013-01-29 02:29:00,58.4,56.7,29.71,South,184,12.0,12.0,94,0.00,,,0.00,0,Wunderground v.1.15,2013-01-29 08:29:00,
2013-01-29 02:34:00,58.4,56.7,29.71,SSW,194,12.0,12.0,94,0.00,,,0.00,0,Wunderground v.1.15,2013-01-29 08:34:00,
2013-01-29 02:39:00,58.4,56.7,29.72,South,190,13.0,16.0,94,0.00,,,0.00,0,Wunderground v.1.15,2013-01-29 08:39:00,
2013-01-29 02:44:00,58.5,57.1,29.72,SSW,207,15.0,19.0,95,0.27,,,0.02,0,Wunderground v.1.15,2013-01-29 08:44:00,
2013-01-29 02:49:00,58.6,57.2,29.73,SSW,193,18.0,18.0,95,0.15,,,0.03,0,Wunderground v.1.15,2013-01-29 08:49:00,
2013-01-29 02:59:00,58.9,57.5,29.71,SSE,155,18.0,18.0,95,0.15,,,0.07,0,Wunderground v.1.15,2013-01-29 08:59:00,
2013-01-29 03:04:00,59.1,57.7,29.69,South,186,14.0,20.0,95,0.14,,,0.08,0,Wunderground v.1.15,2013-01-29 09:04:00,
2013-01-29 03:09:00,59.2,57.8,29.70,South,186,13.0,13.0,95,0.07,,,0.08,0,Wunderground v.1.15,2013-01-29 09:09:00,
2013-01-29 03:14:00,59.3,57.9,29.69,South,176,14.0,14.0,95,0.04,,,0.08,0,Wunderground v.1.15,2013-01-29 09:14:00,
2013-01-29 03:19:00,59.1,57.4,29.69,South,190,13.0,13.0,94,0.00,,,0.08,0,Wunderground v.1.15,2013-01-29 09:19:00,
2013-01-29 03:24:00,59.0,57.3,29.69,South,179,13.0,13.0,94,0.00,,,0.08,0,Wunderground v.1.15,2013-01-29 09:24:00,
2013-01-29 03:34:00,58.9,57.5,29.69,South,184,12.0,14.0,95,0.00,,,0.08,0,Wunderground v.1.15,2013-01-29 09:34:00,
2013-01-29 03:39:00,58.9,57.5,29.69,South,180,12.0,12.0,95,0.00,,,0.08,0,Wunderground v.1.15,2013-01-29 09:39:00,
2013-01-29 03:44:00,58.9,57.5,29.69,South,178,12.0,12.0,95,0.00,,,0.08,0,Wunderground v.1.15,2013-01-29 09:44:00,
2013-01-29 03:49:00,58.8,57.4,29.69,South,188,11.0,15.0,95,0.00,,,0.08,0,Wunderground v.1.15,2013-01-29 09:49:00,
2013-01-29 03:54:00,58.9,57.5,29.69,South,186,11.0,15.0,95,0.00,,,0.08,0,Wunderground v.1.15,2013-01-29 09:54:00,
2013-01-29 04:04:00,58.8,57.4,29.68,SSW,198,10.0,10.0,95,0.00,,,0.08,0,Wunderground v.1.15,2013-01-29 10:04:00,
2013-01-29 04:09:00,58.9,57.5,29.69,South,185,10.0,10.0,95,0.00,,,0.08,0,Wunderground v.1.15,2013-01-29 10:09:00,
2013-01-29 04:14:00,58.8,57.4,29.69,South,181,10.0,11.0,95,0.00,,,0.08,0,Wunderground v.1.15,2013-01-29 10:14:00,
2013-01-29 04:19:00,58.8,57.1,29.69,South,185,9.0,9.0,94,0.00,,,0.08,0,Wunderground v.1.15,2013-01-29 10:19:00,
2013-01-29 04:24:00,58.8,57.4,29.68,South,182,8.0,9.0,95,0.00,,,0.08,0,Wunderground v.1.15,2013-01-29 10:24:00,
2013-01-29 04:29:00,58.7,57.3,29.68,South,173,7.0,7.0,95,0.00,,,0.08,0,Wunderground v.1.15,2013-01-29 10:29:00,
2013-01-29 04:39:00,58.9,57.5,29.67,SSE,157,7.0,7.0,95,0.00,,,0.08,0,Wunderground v.1.15,2013-01-29 10:39:00,
2013-01-29 04:44:00,58.9,57.5,29.67,SSE,166,6.0,8.0,95,0.00,,,0.08,0,Wunderground v.1.15,2013-01-29 10:44:00,
2013-01-29 04:49:00,58.8,57.4,29.68,SSE,165,6.0,6.0,95,0.00,,,0.08,0,Wunderground v.1.15,2013-01-29 10:49:00,
2013-01-29 04:54:00,58.8,57.4,29.68,South,178,6.0,11.0,95,0.00,,,0.08,0,Wunderground v.1.15,2013-01-29 10:54:00,
2013-01-29 04:59:00,58.8,57.4,29.68,SSE,159,7.0,7.0,95,0.00,,,0.08,0,Wunderground v.1.15,2013-01-29 10:59:00,
2013-01-29 05:04:00,58.7,57.3,29.67,SSE,159,8.0,10.0,95,0.00,,,0.08,0,Wunderground v.1.15,2013-01-29 11:04:00,
2013-01-29 05:09:00,58.6,57.2,29.67,South,173,8.0,8.0,95,0.00,,,0.08,0,Wunderground v.1.15,2013-01-29 11:09:00,
2013-01-29 05:14:00,58.6,57.2,29.67,SSE,167,8.0,8.0,95,0.00,,,0.08,0,Wunderground v.1.15,2013-01-29 11:14:00,
2013-01-29 05:19:00,58.5,57.1,29.67,SSE,159,8.0,9.0,95,0.00,,,0.08,0,Wunderground v.1.15,2013-01-29 11:19:00,
2013-01-29 05:24:00,58.5,57.1,29.67,South,178,8.0,9.0,95,0.00,,,0.08,0,Wunderground v.1.15,2013-01-29 11:24:00,
2013-01-29 05:29:00,58.5,57.1,29.67,SSE,166,8.0,9.0,95,0.00,,,0.08,0,Wunderground v.1.15,2013-01-29 11:29:00,
2013-01-29 05:34:00,58.5,57.1,29.66,South,179,8.0,10.0,95,0.00,,,0.08,0,Wunderground v.1.15,2013-01-29 11:34:00,
2013-01-29 05:44:00,58.5,57.1,29.67,SSE,165,10.0,13.0,95,0.00,,,0.08,0,Wunderground v.1.15,2013-01-29 11:44:00,
2013-01-29 05:49:00,58.6,57.2,29.67,South,180,10.0,10.0,95,0.00,,,0.09,0,Wunderground v.1.15,2013-01-29 11:49:00,
2013-01-29 05:54:00,58.6,57.2,29.67,SSE,163,11.0,11.0,95,0.00,,,0.09,0,Wunderground v.1.15,2013-01-29 11:54:00,
2013-01-29 05:59:00,58.7,57.3,29.66,SSE,167,11.0,11.0,95,0.00,,,0.09,0,Wunderground v.1.15,2013-01-29 11:59:00,
2013-01-29 06:09:00,58.9,57.5,29.65,South,171,12.0,12.0,95,0.00,,,0.09,0,Wunderground v.1.15,2013-01-29 12:09:00,
2013-01-29 06:14:00,58.9,57.5,29.65,South,184,11.0,13.0,95,0.00,,,0.09,0,Wunderground v.1.15,2013-01-29 12:14:00,
2013-01-29 06:19:00,58.9,57.5,29.64,South,177,12.0,12.0,95,0.00,,,0.09,0,Wunderground v.1.15,2013-01-29 12:19:00,
2013-01-29 06:24:00,58.9,57.2,29.65,South,190,12.0,15.0,94,0.00,,,0.09,0,Wunderground v.1.15,2013-01-29 12:24:00,
2013-01-29 06:29:00,58.8,57.1,29.65,South,186,12.0,12.0,94,0.00,,,0.09,0,Wunderground v.1.15,2013-01-29 12:29:00,
2013-01-29 06:34:00,58.8,57.1,29.65,South,185,11.0,12.0,94,0.00,,,0.09,0,Wunderground v.1.15,2013-01-29 12:34:00,
2013-01-29 06:39:00,58.7,57.0,29.64,South,189,11.0,12.0,94,0.00,,,0.09,0,Wunderground v.1.15,2013-01-29 12:39:00,
2013-01-29 06:49:00,58.7,57.0,29.66,South,188,11.0,11.0,94,0.00,,,0.09,0,Wunderground v.1.15,2013-01-29 12:49:00,
2013-01-29 06:54:00,58.7,57.0,29.66,South,186,11.0,13.0,94,0.00,,,0.09,0,Wunderground v.1.15,2013-01-29 12:54:00,
2013-01-29 06:59:00,58.8,57.4,29.65,South,173,12.0,14.0,95,0.00,,,0.09,0,Wunderground v.1.15,2013-01-29 12:59:00,
2013-01-29 07:09:00,59.1,57.7,29.66,South,189,13.0,17.0,95,0.00,,,0.09,0,Wunderground v.1.15,2013-01-29 13:09:00,
2013-01-29 07:14:00,59.2,57.5,29.65,South,174,13.0,17.0,94,0.00,,,0.09,0,Wunderground v.1.15,2013-01-29 13:14:00,
2013-01-29 07:19:00,59.2,57.5,29.65,South,186,12.0,15.0,94,0.00,,,0.09,0,Wunderground v.1.15,2013-01-29 13:19:00,
2013-01-29 07:24:00,59.2,57.5,29.65,South,188,11.0,15.0,94,0.00,,,0.09,0,Wunderground v.1.15,2013-01-29 13:24:00,
2013-01-29 07:29:00,59.1,57.4,29.64,South,172,11.0,11.0,94,0.00,,,0.09,5,Wunderground v.1.15,2013-01-29 13:29:00,
2013-01-29 07:34:00,59.1,57.4,29.64,South,179,10.0,11.0,94,0.00,,,0.09,11,Wunderground v.1.15,2013-01-29 13:34:00,
2013-01-29 07:39:00,59.1,57.4,29.64,South,182,10.0,14.0,94,0.00,,,0.09,18,Wunderground v.1.15,2013-01-29 13:39:00,
2013-01-29 07:44:00,59.2,57.5,29.64,South,188,11.0,15.0,94,0.00,,,0.09,25,Wunderground v.1.15,2013-01-29 13:44:00,
2013-01-29 07:54:00,59.4,57.7,29.64,South,185,12.0,14.0,94,0.00,,,0.09,25,Wunderground v.1.15,2013-01-29 13:54:00,
2013-01-29 07:59:00,59.4,57.7,29.64,South,186,13.0,13.0,94,0.00,,,0.10,30,Wunderground v.1.15,2013-01-29 13:59:00,
2013-01-29 08:09:00,59.5,57.8,29.64,South,183,12.0,14.0,94,0.00,,,0.10,56,Wunderground v.1.15,2013-01-29 14:09:00,
2013-01-29 08:14:00,59.7,58.0,29.64,South,182,12.0,14.0,94,0.00,,,0.10,81,Wunderground v.1.15,2013-01-29 14:14:00,
2013-01-29 08:19:00,59.9,58.2,29.64,South,180,13.0,14.0,94,0.00,,,0.10,81,Wunderground v.1.15,2013-01-29 14:19:00,
2013-01-29 08:24:00,60.2,58.5,29.63,South,180,13.0,14.0,94,0.00,,,0.10,74,Wunderground v.1.15,2013-01-29 14:24:00,
2013-01-29 08:34:00,60.6,58.6,29.63,South,186,12.0,20.0,93,0.00,,,0.10,88,Wunderground v.1.15,2013-01-29 14:34:00,
2013-01-29 08:39:00,60.7,58.7,29.62,South,176,13.0,13.0,93,0.00,,,0.10,97,Wunderground v.1.15,2013-01-29 14:39:00,
2013-01-29 08:44:00,60.8,58.8,29.62,South,177,13.0,13.0,93,0.00,,,0.10,104,Wunderground v.1.15,2013-01-29 14:44:00,
2013-01-29 08:49:00,60.9,58.9,29.62,South,176,12.0,12.0,93,0.00,,,0.10,100,Wunderground v.1.15,2013-01-29 14:49:00,
2013-01-29 08:54:00,61.0,59.0,29.62,South,184,12.0,12.0,93,0.00,,,0.10,120,Wunderground v.1.15,2013-01-29 14:54:00,
2013-01-29 08:59:00,61.2,59.2,29.62,South,177,13.0,16.0,93,0.00,,,0.10,141,Wunderground v.1.15,2013-01-29 14:59:00,
2013-01-29 09:09:00,61.6,59.3,29.62,South,184,14.0,14.0,92,0.00,,,0.10,91,Wunderground v.1.15,2013-01-29 15:09:00,
2013-01-29 09:14:00,61.8,59.5,29.62,South,180,13.0,14.0,92,0.00,,,0.10,142,Wunderground v.1.15,2013-01-29 15:14:00,
2013-01-29 09:19:00,62.0,59.6,29.62,South,178,13.0,16.0,92,0.00,,,0.10,211,Wunderground v.1.15,2013-01-29 15:19:00,
2013-01-29 09:24:00,62.2,59.8,29.62,SSE,159,13.0,16.0,92,0.00,,,0.10,155,Wunderground v.1.15,2013-01-29 15:24:00,
2013-01-29 09:34:00,62.4,59.7,29.61,South,171,12.0,20.0,91,0.00,,,0.10,151,Wunderground v.1.15,2013-01-29 15:34:00,
2013-01-29 09:39:00,62.5,59.8,29.62,South,175,14.0,14.0,91,0.00,,,0.10,142,Wunderground v.1.15,2013-01-29 15:39:00,
2013-01-29 09:44:00,62.4,59.7,29.62,South,184,15.0,15.0,91,0.00,,,0.10,114,Wunderground v.1.15,2013-01-29 15:44:00,
2013-01-29 09:49:00,62.4,59.7,29.61,South,179,14.0,14.0,91,0.00,,,0.10,86,Wunderground v.1.15,2013-01-29 15:49:00,
2013-01-29 09:54:00,62.3,59.6,29.62,SSW,192,14.0,14.0,91,0.00,,,0.10,88,Wunderground v.1.15,2013-01-29 15:54:00,
2013-01-29 09:59:00,62.3,59.6,29.62,South,185,14.0,14.0,91,0.00,,,0.10,109,Wunderground v.1.15,2013-01-29 15:59:00,
2013-01-29 10:09:00,62.2,59.5,29.62,South,173,15.0,17.0,91,0.00,,,0.10,100,Wunderground v.1.15,2013-01-29 16:09:00,
2013-01-29 10:14:00,62.3,59.6,29.61,South,180,14.0,17.0,91,0.00,,,0.10,141,Wunderground v.1.15,2013-01-29 16:14:00,
2013-01-29 10:19:00,62.3,59.6,29.61,South,174,14.0,14.0,91,0.00,,,0.10,142,Wunderground v.1.15,2013-01-29 16:19:00,
2013-01-29 10:24:00,62.4,59.7,29.61,South,186,14.0,14.0,91,0.00,,,0.10,213,Wunderground v.1.15,2013-01-29 16:24:00,
2013-01-29 10:29:00,62.7,60.3,29.60,South,175,13.0,13.0,92,0.00,,,0.10,353,Wunderground v.1.15,2013-01-29 16:29:00,
2013-01-29 10:39:00,63.8,61.1,29.60,SSW,192,16.0,16.0,91,0.00,,,0.10,330,Wunderground v.1.15,2013-01-29 16:39:00,
2013-01-29 10:44:00,64.3,61.3,29.59,South,191,17.0,17.0,90,0.00,,,0.10,278,Wunderground v.1.15,2013-01-29 16:44:00,
2013-01-29 10:49:00,64.7,61.7,29.59,SSW,197,17.0,20.0,90,0.00,,,0.10,292,Wunderground v.1.15,2013-01-29 16:49:00,
2013-01-29 10:54:00,65.1,61.8,29.59,SSW,209,18.0,20.0,89,0.00,,,0.10,399,Wunderground v.1.15,2013-01-29 16:54:00,
2013-01-29 10:59:00,65.6,62.3,29.58,SSW,193,19.0,22.0,89,0.00,,,0.10,645,Wunderground v.1.15,2013-01-29 16:59:00,
2013-01-29 11:04:00,66.2,62.5,29.57,SSW,195,20.0,22.0,88,0.00,,,0.10,555,Wunderground v.1.15,2013-01-29 17:04:00,
2013-01-29 11:09:00,66.4,62.4,29.58,South,191,20.0,23.0,87,0.00,,,0.10,295,Wunderground v.1.15,2013-01-29 17:09:00,
2013-01-29 11:14:00,66.2,62.2,29.58,South,190,18.0,23.0,87,0.00,,,0.10,227,Wunderground v.1.15,2013-01-29 17:14:00,
2013-01-29 11:19:00,65.9,61.9,29.57,South,186,18.0,18.0,87,0.00,,,0.10,246,Wunderground v.1.15,2013-01-29 17:19:00,
2013-01-29 11:24:00,65.7,61.7,29.57,South,188,18.0,18.0,87,0.00,,,0.10,148,Wunderground v.1.15,2013-01-29 17:24:00,
2013-01-29 11:29:00,65.2,61.2,29.58,South,183,17.0,19.0,87,0.00,,,0.10,62,Wunderground v.1.15,2013-01-29 17:29:00,
2013-01-29 11:34:00,64.8,60.8,29.57,SSE,164,15.0,19.0,87,0.00,,,0.10,28,Wunderground v.1.15,2013-01-29 17:34:00,
2013-01-29 11:44:00,64.0,60.4,29.58,South,184,15.0,20.0,88,0.00,,,0.10,12,Wunderground v.1.15,2013-01-29 17:44:00,
2013-01-29 11:49:00,63.7,60.1,29.58,SSW,210,15.0,15.0,88,0.00,,,0.10,21,Wunderground v.1.15,2013-01-29 17:49:00,
2013-01-29 11:54:00,63.3,60.0,29.59,West,261,14.0,15.0,89,0.00,,,0.11,7,Wunderground v.1.15,2013-01-29 17:54:00,
2013-01-29 11:59:00,61.4,57.8,29.58,WSW,252,14.0,14.0,88,0.29,,,0.13,40,Wunderground v.1.15,2013-01-29 17:59:00,
2013-01-29 12:04:00,59.8,56.9,29.58,WSW,245,14.0,16.0,90,0.16,,,0.15,97,Wunderground v.1.15,2013-01-29 18:04:00,
2013-01-29 12:14:00,59.2,57.2,29.58,SW,226,12.0,14.0,93,0.07,,,0.16,220,Wunderground v.1.15,2013-01-29 18:14:00,
2013-01-29 12:19:00,59.4,57.4,29.57,SW,223,10.0,10.0,93,0.04,,,0.16,213,Wunderground v.1.15,2013-01-29 18:19:00,
2013-01-29 12:24:00,59.5,57.5,29.55,SW,227,9.0,11.0,93,0.00,,,0.16,169,Wunderground v.1.15,2013-01-29 18:24:00,
2013-01-29 12:29:00,59.6,57.3,29.55,SW,233,10.0,11.0,92,0.00,,,0.16,90,Wunderground v.1.15,2013-01-29 18:29:00,
2013-01-29 12:34:00,59.7,57.1,29.55,SW,230,10.0,11.0,91,0.00,,,0.16,102,Wunderground v.1.15,2013-01-29 18:34:00,
2013-01-29 12:39:00,59.7,57.4,29.54,SW,228,9.0,9.0,92,0.00,,,0.17,72,Wunderground v.1.15,2013-01-29 18:39:00,
2013-01-29 12:49:00,59.5,57.2,29.53,SW,229,5.0,7.0,92,0.00,,,0.17,53,Wunderground v.1.15,2013-01-29 18:49:00,
2013-01-29 12:54:00,59.3,57.0,29.54,SW,232,5.0,7.0,92,0.00,,,0.17,46,Wunderground v.1.15,2013-01-29 18:54:00,
2013-01-29 12:59:00,59.1,56.8,29.53,WSW,238,6.0,6.0,92,0.00,,,0.17,74,Wunderground v.1.15,2013-01-29 18:59:00,
2013-01-29 13:04:00,59.0,57.6,29.53,WSW,238,4.0,6.0,95,0.00,,,0.17,54,Wunderground v.1.15,2013-01-29 19:04:00,
2013-01-29 13:09:00,58.9,56.9,29.52,WSW,238,3.0,3.0,93,0.00,,,0.17,46,Wunderground v.1.15,2013-01-29 19:09:00,
2013-01-29 13:19:00,58.2,55.9,29.51,WSW,238,4.0,4.0,92,0.00,,,0.17,35,Wunderground v.1.15,2013-01-29 19:19:00,
2013-01-29 13:24:00,57.9,55.9,29.51,WSW,238,4.0,4.0,93,0.00,,,0.17,11,Wunderground v.1.15,2013-01-29 19:24:00,
2013-01-29 13:29:00,57.6,55.6,29.52,WSW,257,4.0,8.0,93,0.00,,,0.18,12,Wunderground v.1.15,2013-01-29 19:29:00,
2013-01-29 13:34:00,57.4,55.4,29.53,WSW,258,5.0,8.0,93,0.35,,,0.20,16,Wunderground v.1.15,2013-01-29 19:34:00,
2013-01-29 13:39:00,57.1,55.1,29.52,West,273,6.0,11.0,93,0.20,,,0.21,35,Wunderground v.1.15,2013-01-29 19:39:00,
2013-01-29 13:44:00,56.7,55.0,29.51,West,276,8.0,11.0,94,0.24,,,0.23,19,Wunderground v.1.15,2013-01-29 19:44:00,
2013-01-29 13:54:00,56.3,54.9,29.52,West,275,8.0,10.0,95,0.13,,,0.25,26,Wunderground v.1.15,2013-01-29 19:54:00,
2013-01-29 13:59:00,56.2,54.8,29.52,West,266,7.0,7.0,95,0.22,,,0.26,35,Wunderground v.1.15,2013-01-29 19:59:00,
2013-01-29 14:04:00,56.2,54.8,29.52,West,267,6.0,7.0,95,0.24,,,0.29,23,Wunderground v.1.15,2013-01-29 20:04:00,
2013-01-29 14:09:00,56.2,55.1,29.52,West,266,5.0,5.0,96,0.15,,,0.30,21,Wunderground v.1.15,2013-01-29 20:09:00,
2013-01-29 14:14:00,56.2,55.1,29.51,West,266,5.0,5.0,96,0.17,,,0.31,30,Wunderground v.1.15,2013-01-29 20:14:00,
2013-01-29 14:24:00,56.0,54.9,29.49,West,267,4.0,5.0,96,0.10,,,0.33,44,Wunderground v.1.15,2013-01-29 20:24:00,
2013-01-29 14:29:00,55.9,54.8,29.49,West,267,4.0,4.0,96,0.06,,,0.33,58,Wunderground v.1.15,2013-01-29 20:29:00,
2013-01-29 14:34:00,55.9,54.8,29.48,West,267,3.0,4.0,96,0.05,,,0.34,49,Wunderground v.1.15,2013-01-29 20:34:00,
2013-01-29 14:39:00,55.9,54.8,29.48,West,267,1.0,1.0,96,0.05,,,0.34,26,Wunderground v.1.15,2013-01-29 20:39:00,
2013-01-29 14:44:00,55.9,54.8,29.47,West,267,0.0,1.0,96,0.04,,,0.34,19,Wunderground v.1.15,2013-01-29 20:44:00,
2013-01-29 14:49:00,55.9,54.8,29.48,West,267,0.0,0.0,96,0.00,,,0.35,14,Wunderground v.1.15,2013-01-29 20:49:00,
2013-01-29 14:59:00,55.6,54.5,29.48,West,267,1.0,1.0,96,0.23,,,0.38,9,Wunderground v.1.15,2013-01-29 20:59:00,
2013-01-29 15:04:00,55.5,54.4,29.48,West,267,1.0,1.0,96,0.15,,,0.40,11,Wunderground v.1.15,2013-01-29 21:04:00,
2013-01-29 15:09:00,55.5,54.4,29.49,WNW,282,3.0,6.0,96,0.22,,,0.41,7,Wunderground v.1.15,2013-01-29 21:09:00,
2013-01-29 15:14:00,55.4,54.3,29.50,WNW,286,5.0,6.0,96,0.31,,,0.44,5,Wunderground v.1.15,2013-01-29 21:14:00,
2013-01-29 15:19:00,55.3,54.5,29.51,WNW,286,7.0,10.0,97,0.43,,,0.46,5,Wunderground v.1.15,2013-01-29 21:19:00,
2013-01-29 15:29:00,55.1,54.3,29.51,West,278,7.0,7.0,97,0.44,,,0.54,11,Wunderground v.1.15,2013-01-29 21:29:00,
2013-01-29 15:34:00,55.0,54.2,29.52,West,281,7.0,7.0,97,0.27,,,0.56,11,Wunderground v.1.15,2013-01-29 21:34:00,
2013-01-29 15:39:00,55.0,54.2,29.51,WNW,294,8.0,9.0,97,0.33,,,0.58,11,Wunderground v.1.15,2013-01-29 21:39:00,
2013-01-29 15:44:00,54.8,54.0,29.51,WNW,296,10.0,10.0,97,0.18,,,0.60,12,Wunderground v.1.15,2013-01-29 21:44:00,
2013-01-29 15:49:00,54.6,53.8,29.51,WNW,300,9.0,11.0,97,0.14,,,0.61,11,Wunderground v.1.15,2013-01-29 21:49:00,
2013-01-29 15:54:00,54.3,53.5,29.51,NW,314,11.0,13.0,97,0.11,,,0.62,7,Wunderground v.1.15,2013-01-29 21:54:00,
2013-01-29 16:04:00,53.5,52.4,29.50,NNW,327,7.0,11.0,96,0.16,,,0.65,7,Wunderground v.1.15,2013-01-29 22:04:00,
2013-01-29 16:09:00,53.1,52.3,29.49,NNW,331,6.0,6.0,97,0.17,,,0.66,7,Wunderground v.1.15,2013-01-29 22:09:00,
2013-01-29 16:14:00,52.9,52.1,29.49,NNW,338,4.0,6.0,97,0.21,,,0.68,7,Wunderground v.1.15,2013-01-29 22:14:00,
2013-01-29 16:19:00,52.7,51.9,29.50,NNW,340,4.0,4.0,97,0.13,,,0.69,5,Wunderground v.1.15,2013-01-29 22:19:00,
2013-01-29 16:24:00,52.6,51.8,29.51,NNW,340,2.0,4.0,97,0.13,,,0.70,0,Wunderground v.1.15,2013-01-29 22:24:00,
2013-01-29 16:34:00,52.6,51.8,29.51,NNW,340,0.0,1.0,97,0.19,,,0.73,0,Wunderground v.1.15,2013-01-29 22:34:00,
2013-01-29 16:39:00,52.5,51.7,29.51,NNW,340,0.0,0.0,97,0.19,,,0.74,0,Wunderground v.1.15,2013-01-29 22:39:00,
2013-01-29 16:44:00,52.5,51.7,29.51,NNW,340,0.0,0.0,97,0.31,,,0.77,0,Wunderground v.1.15,2013-01-29 22:44:00,
2013-01-29 16:49:00,52.4,51.6,29.50,NNW,340,0.0,0.0,97,0.28,,,0.79,0,Wunderground v.1.15,2013-01-29 22:49:00,
2013-01-29 16:54:00,52.3,51.5,29.50,NNW,340,0.0,0.0,97,0.15,,,0.81,0,Wunderground v.1.15,2013-01-29 22:54:00,
2013-01-29 16:59:00,52.3,51.5,29.50,NNW,340,0.0,0.0,97,0.18,,,0.82,0,Wunderground v.1.15,2013-01-29 22:59:00,
2013-01-29 17:04:00,52.2,51.4,29.51,NNW,340,0.0,0.0,97,0.11,,,0.83,0,Wunderground v.1.15,2013-01-29 23:04:00,
2013-01-29 17:14:00,52.1,51.3,29.51,NNW,340,0.0,0.0,97,0.09,,,0.84,0,Wunderground v.1.15,2013-01-29 23:14:00,
2013-01-29 17:19:00,52.0,51.2,29.50,NNW,340,0.0,0.0,97,0.08,,,0.85,0,Wunderground v.1.15,2013-01-29 23:19:00,
2013-01-29 17:24:00,51.9,51.1,29.50,NNW,340,0.0,0.0,97,0.09,,,0.86,0,Wunderground v.1.15,2013-01-29 23:24:00,
2013-01-29 17:29:00,52.0,51.2,29.51,NNW,340,0.0,0.0,97,0.09,,,0.87,0,Wunderground v.1.15,2013-01-29 23:29:00,
2013-01-29 17:34:00,51.9,51.1,29.50,NNW,340,0.0,0.0,97,0.09,,,0.87,0,Wunderground v.1.15,2013-01-29 23:34:00,
2013-01-29 17:39:00,51.9,51.1,29.49,NNW,340,0.0,0.0,97,0.09,,,0.88,0,Wunderground v.1.15,2013-01-29 23:39:00,
2013-01-29 17:44:00,51.7,50.9,29.50,NNW,340,1.0,2.0,97,0.09,,,0.89,0,Wunderground v.1.15,2013-01-29 23:44:00,
2013-01-29 17:49:00,51.6,50.8,29.51,NNW,340,1.0,2.0,97,0.08,,,0.89,0,Wunderground v.1.15,2013-01-29 23:49:00,
2013-01-29 17:54:00,51.5,50.7,29.51,NNW,340,1.0,2.0,97,0.08,,,0.90,0,Wunderground v.1.15,2013-01-29 23:54:00,
2013-01-29 17:59:00,51.5,50.7,29.51,NNW,340,0.0,0.0,97,0.17,,,0.91,0,Wunderground v.1.15,2013-01-29 23:59:00,
2013-01-29 18:09:00,51.4,50.6,29.50,NNW,340,0.0,0.0,97,0.13,,,0.94,0,Wunderground v.1.15,2013-01-30 00:09:00,
2013-01-29 18:14:00,51.3,50.5,29.50,NNW,340,0.0,0.0,97,0.14,,,0.95,0,Wunderground v.1.15,2013-01-30 00:14:00,
2013-01-29 18:19:00,51.2,50.4,29.49,NNW,340,0.0,0.0,97,0.14,,,0.96,0,Wunderground v.1.15,2013-01-30 00:19:00,
2013-01-29 18:24:00,51.2,50.4,29.49,NNW,340,0.0,0.0,97,0.15,,,0.97,0,Wunderground v.1.15,2013-01-30 00:24:00,
2013-01-29 18:29:00,51.2,50.4,29.49,NNW,340,1.0,3.0,97,0.12,,,0.98,0,Wunderground v.1.15,2013-01-30 00:29:00,
2013-01-29 18:34:00,51.2,50.4,29.48,NNW,340,2.0,3.0,97,0.10,,,0.99,0,Wunderground v.1.15,2013-01-30 00:34:00,
2013-01-29 18:39:00,51.2,50.4,29.47,NNE,19,3.0,5.0,97,0.09,,,1.00,0,Wunderground v.1.15,2013-01-30 00:39:00,
2013-01-29 18:44:00,51.0,50.2,29.46,NNE,31,4.0,5.0,97,0.08,,,1.00,0,Wunderground v.1.15,2013-01-30 00:44:00,
2013-01-29 18:49:00,50.9,50.1,29.46,NNE,32,5.0,5.0,97,0.05,,,1.00,0,Wunderground v.1.15,2013-01-30 00:49:00,
2013-01-29 18:54:00,50.9,50.1,29.47,NE,39,5.0,6.0,97,0.04,,,1.01,0,Wunderground v.1.15,2013-01-30 00:54:00,
2013-01-29 18:59:00,51.0,50.5,29.46,NE,43,5.0,5.0,98,0.04,,,1.01,0,Wunderground v.1.15,2013-01-30 00:59:00,
2013-01-29 19:09:00,51.2,50.7,29.46,NE,43,4.0,4.0,98,0.00,,,1.01,0,Wunderground v.1.15,2013-01-30 01:09:00,
2013-01-29 19:19:00,51.2,50.7,29.47,NE,43,4.0,4.0,98,0.00,,,1.02,0,Wunderground v.1.15,2013-01-30 01:19:00,
2013-01-29 19:24:00,51.2,50.7,29.47,NE,43,2.0,4.0,98,0.00,,,1.02,0,Wunderground v.1.15,2013-01-30 01:24:00,
2013-01-29 19:29:00,51.1,50.6,29.47,NE,43,0.0,0.0,98,0.05,,,1.03,0,Wunderground v.1.15,2013-01-30 01:29:00,
2013-01-29 19:34:00,51.1,50.6,29.48,NE,43,1.0,2.0,98,0.05,,,1.03,0,Wunderground v.1.15,2013-01-30 01:34:00,
2013-01-29 19:39:00,51.1,50.6,29.48,NE,43,2.0,2.0,98,0.05,,,1.03,0,Wunderground v.1.15,2013-01-30 01:39:00,
2013-01-29 19:44:00,51.0,50.5,29.47,NE,43,1.0,2.0,98,0.04,,,1.04,0,Wunderground v.1.15,2013-01-30 01:44:00,
2013-01-29 19:49:00,51.0,50.5,29.46,NE,43,0.0,0.0,98,0.04,,,1.04,0,Wunderground v.1.15,2013-01-30 01:49:00,
2013-01-29 19:54:00,51.0,50.5,29.46,NE,43,0.0,0.0,98,0.09,,,1.05,0,Wunderground v.1.15,2013-01-30 01:54:00,
2013-01-29 19:59:00,50.9,50.4,29.46,NE,43,0.0,0.0,98,0.08,,,1.06,0,Wunderground v.1.15,2013-01-30 01:59:00,
2013-01-29 20:09:00,50.6,49.8,29.47,NE,43,1.0,3.0,97,0.09,,,1.07,0,Wunderground v.1.15,2013-01-30 02:09:00,
2013-01-29 20:14:00,50.5,50.0,29.47,NE,43,2.0,4.0,98,0.07,,,1.07,0,Wunderground v.1.15,2013-01-30 02:14:00,
2013-01-29 20:24:00,50.3,49.5,29.47,NE,43,3.0,4.0,97,0.10,,,1.09,0,Wunderground v.1.15,2013-01-30 02:24:00,
2013-01-29 20:29:00,50.2,49.4,29.47,NE,43,2.0,2.0,97,0.18,,,1.11,0,Wunderground v.1.15,2013-01-30 02:29:00,
2013-01-29 20:34:00,50.1,49.3,29.48,NE,43,2.0,3.0,97,0.20,,,1.12,0,Wunderground v.1.15,2013-01-30 02:34:00,
2013-01-29 20:39:00,50.0,49.5,29.48,ENE,57,3.0,4.0,98,0.15,,,1.13,0,Wunderground v.1.15,2013-01-30 02:39:00,
2013-01-29 20:44:00,50.1,49.6,29.48,SE,140,4.0,9.0,98,0.13,,,1.14,0,Wunderground v.1.15,2013-01-30 02:44:00,
2013-01-29 20:49:00,50.3,49.8,29.48,SSE,159,4.0,4.0,98,0.12,,,1.15,0,Wunderground v.1.15,2013-01-30 02:49:00,
2013-01-29 20:54:00,50.5,50.0,29.48,SSE,167,4.0,5.0,98,0.12,,,1.16,0,Wunderground v.1.15,2013-01-30 02:54:00,
2013-01-29 20:59:00,50.5,50.0,29.48,South,170,5.0,7.0,98,0.12,,,1.17,0,Wunderground v.1.15,2013-01-30 02:59:00,
2013-01-29 21:09:00,50.5,50.0,29.46,SSE,166,5.0,5.0,98,0.12,,,1.19,0,Wunderground v.1.15,2013-01-30 03:09:00,
2013-01-29 21:14:00,50.5,50.0,29.46,SSE,165,5.0,5.0,98,0.06,,,1.19,0,Wunderground v.1.15,2013-01-30 03:14:00,
2013-01-29 21:19:00,50.4,49.9,29.46,SSE,165,5.0,6.0,98,0.05,,,1.20,0,Wunderground v.1.15,2013-01-30 03:19:00,
2013-01-29 21:29:00,50.5,50.0,29.47,SSE,165,3.0,3.0,98,0.05,,,1.20,0,Wunderground v.1.15,2013-01-30 03:29:00,
2013-01-29 21:34:00,50.4,49.9,29.47,SSE,165,3.0,4.0,98,0.04,,,1.21,0,Wunderground v.1.15,2013-01-30 03:34:00,
2013-01-29 21:39:00,50.3,49.8,29.47,SSE,165,3.0,3.0,98,0.04,,,1.21,0,Wunderground v.1.15,2013-01-30 03:39:00,
2013-01-29 21:44:00,50.1,49.6,29.48,SSE,165,3.0,4.0,98,0.04,,,1.21,0,Wunderground v.1.15,2013-01-30 03:44:00,
2013-01-29 21:49:00,50.1,49.6,29.48,SSE,165,3.0,3.0,98,0.05,,,1.22,0,Wunderground v.1.15,2013-01-30 03:49:00,
2013-01-29 21:54:00,49.4,48.6,29.47,SW,218,4.0,6.0,97,0.08,,,1.23,0,Wunderground v.1.15,2013-01-30 03:54:00,
2013-01-29 22:04:00,45.7,44.6,29.46,NW,315,8.0,11.0,96,0.08,,,1.24,0,Wunderground v.1.15,2013-01-30 04:04:00,
2013-01-29 22:09:00,44.1,43.0,29.46,NW,317,11.0,11.0,96,0.06,,,1.24,0,Wunderground v.1.15,2013-01-30 04:09:00,
2013-01-29 22:14:00,43.3,42.2,29.44,NW,320,9.0,11.0,96,0.06,,,1.25,0,Wunderground v.1.15,2013-01-30 04:14:00,
2013-01-29 22:19:00,42.9,42.1,29.43,NW,323,7.0,7.0,97,0.07,,,1.26,0,Wunderground v.1.15,2013-01-30 04:19:00,
2013-01-29 22:24:00,42.4,41.6,29.44,NW,323,6.0,7.0,97,0.07,,,1.26,0,Wunderground v.1.15,2013-01-30 04:24:00,
2013-01-29 22:34:00,41.5,40.7,29.45,NW,320,10.0,13.0,97,0.04,,,1.26,0,Wunderground v.1.15,2013-01-30 04:34:00,
2013-01-29 22:39:00,41.1,40.3,29.44,NW,308,12.0,16.0,97,0.00,,,1.27,0,Wunderground v.1.15,2013-01-30 04:39:00,
2013-01-29 22:44:00,40.7,39.9,29.44,NW,306,14.0,17.0,97,0.00,,,1.27,0,Wunderground v.1.15,2013-01-30 04:44:00,
2013-01-29 22:49:00,40.4,39.6,29.43,NW,314,15.0,15.0,97,0.00,,,1.27,0,Wunderground v.1.15,2013-01-30 04:49:00,
2013-01-29 22:54:00,40.1,39.3,29.43,NW,316,14.0,15.0,97,0.00,,,1.27,0,Wunderground v.1.15,2013-01-30 04:54:00,
2013-01-29 22:59:00,39.9,39.1,29.42,NW,318,11.0,11.0,97,0.00,,,1.27,0,Wunderground v.1.15,2013-01-30 04:59:00,
2013-01-29 23:04:00,39.7,38.9,29.42,NW,321,9.0,11.0,97,0.00,,,1.27,0,Wunderground v.1.15,2013-01-30 05:04:00,
2013-01-29 23:09:00,39.7,38.9,29.43,NW,323,7.0,9.0,97,0.00,,,1.27,0,Wunderground v.1.15,2013-01-30 05:09:00,
2013-01-29 23:14:00,39.6,38.8,29.42,NNW,333,7.0,9.0,97,0.00,,,1.27,0,Wunderground v.1.15,2013-01-30 05:14:00,
2013-01-29 23:19:00,39.4,38.6,29.43,NNW,327,7.0,7.0,97,0.00,,,1.27,0,Wunderground v.1.15,2013-01-30 05:19:00,
2013-01-29 23:24:00,39.3,38.5,29.43,NW,325,6.0,10.0,97,0.00,,,1.27,0,Wunderground v.1.15,2013-01-30 05:24:00,
2013-01-29 23:29:00,39.1,38.3,29.44,NW,321,8.0,13.0,97,0.00,,,1.28,0,Wunderground v.1.15,2013-01-30 05:29:00,
2013-01-29 23:39:00,38.9,38.1,29.44,NNW,330,7.0,7.0,97,0.00,,,1.28,0,Wunderground v.1.15,2013-01-30 05:39:00,
2013-01-29 23:44:00,38.9,38.1,29.44,NNW,331,6.0,7.0,97,0.00,,,1.28,0,Wunderground v.1.15,2013-01-30 05:44:00,
2013-01-29 23:49:00,38.8,38.0,29.43,NW,324,7.0,12.0,97,0.00,,,1.28,0,Wunderground v.1.15,2013-01-30 05:49:00,
2013-01-29 23:54:00,38.7,37.9,29.43,NW,322,8.0,12.0,97,0.00,,,1.29,0,Wunderground v.1.15,2013-01-30 05:54:00,
2013-01-29 23:59:00,38.5,37.7,29.43,NW,325,9.0,9.0,97,0.00,,,0.00,0,Wunderground v.1.15,2013-01-30 05:59:00,